Time;durP1;ratioP1;P1;durP2;ratioP2;P2;SDS_P1;SDS_P2;PMS_P1;PMS_P2;Temp;Humidity;BMP_temperature;BMP_pressure;BME280_temperature;BME280_humidity;BME280_pressure;Samples;Min_cycle;Max_cycle;Signal;HPM_P1;HPM_P2
2021/12/03 00:02:25;;;;;;;;;;;;;;;0.47;88.94;95322.63;5117458;28;19923;-78
2021/12/03 00:04:51;;;;;;;;;;;;;;;0.51;88.92;95321.25;5098892;28;19932;-78
2021/12/03 00:07:17;;;;;;;;;;;;;;;0.53;87.87;95328.81;5117168;28;19978;-79
2021/12/03 00:09:42;;;;;;;;;;;;;;;0.56;87.91;95325.84;5117097;28;19979;-78
2021/12/03 00:12:08;;;;;;;;;;;;;;;0.56;87.92;95338.78;5123721;27;19935;-78
2021/12/03 00:14:37;;;;;;;;;;;;;;;0.48;87.57;95333.78;5122881;28;19964;-78
2021/12/03 00:17:03;;;;;;;;;;;;;;;0.51;86.98;95341.16;5116717;28;19932;-77
2021/12/03 00:19:28;;;;;;;;;;;;;;;0.48;87.54;95341.53;5116657;28;19934;-77
2021/12/03 00:21:55;;;;;;;;;;;;;;;0.39;88.85;95348.69;5117326;28;19955;-79
2021/12/03 00:24:21;;;;;;;;;;;;;;;0.36;88.39;95349.06;5117321;28;20018;-79
2021/12/03 00:26:46;;;;;;;;;;;;;;;0.23;89.09;95354.97;5118386;28;19955;-77
2021/12/03 00:29:12;;;;;;;;;;;;;;;0.29;88.88;95363.75;5117653;28;19930;-78
2021/12/03 00:31:37;;;;;;;;;;;;;;;0.29;88.76;95374.09;5117482;28;19924;-79
2021/12/03 00:34:03;;;;;;;;;;;;;;;0.23;89.29;95365.31;5119130;28;19972;-78
2021/12/03 00:36:29;;;;;;;;;;;;;;;0.16;89.76;95374.84;5124875;28;20519;-79
2021/12/03 00:38:58;;;;;;;;;;;;;;;0.11;89.99;95386.72;5111695;28;19924;-78
2021/12/03 00:41:24;;;;;;;;;;;;;;;-0.01;90.38;95399.41;5109630;28;19924;-78
2021/12/03 00:43:52;;;;;;;;;;;;;;;-0.05;90.12;95398.19;5130898;28;19934;-77
2021/12/03 00:46:21;;;;;;;;;;;;;;;-0.02;90.51;95413.31;5112827;28;19931;-79
2021/12/03 00:48:50;;;;;;;;;;;;;;;0.10;90.13;95414.38;5113074;28;20022;-80
2021/12/03 00:51:15;;;;;;;;;;;;;;;0.15;89.79;95419.78;5128079;28;19947;-78
2021/12/03 00:53:43;;;;;;;;;;;;;;;0.13;90.19;95436.50;5127806;28;20379;-80
2021/12/03 00:56:12;;;;;;;;;;;;;;;0.24;90.00;95441.13;5132549;28;19950;-79
2021/12/03 00:58:38;;;;;;;;;;;;;;;0.24;89.42;95449.69;5115636;28;19959;-77
2021/12/03 01:01:04;;;;;;;;;;;;;;;0.35;89.40;95455.31;5114916;28;19934;-78
2021/12/03 01:03:32;;;;;;;;;;;;;;;0.37;89.37;95461.09;5102044;28;20344;-77
2021/12/03 01:05:57;;;;;;;;;;;;;;;0.39;90.12;95467.69;5119895;28;19924;-77
2021/12/03 01:08:23;;;;;;;;;;;;;;;0.31;90.02;95472.19;5100860;28;19977;-77
2021/12/03 01:10:48;;;;;;;;;;;;;;;0.31;90.67;95467.03;5119971;28;19924;-78
2021/12/03 01:13:15;;;;;;;;;;;;;;;0.33;90.73;95473.63;5119345;28;19924;-78
2021/12/03 01:15:41;;;;;;;;;;;;;;;0.29;90.87;95463.84;5120281;28;19931;-78
2021/12/03 01:18:08;;;;;;;;;;;;;;;0.32;90.85;95476.38;5120954;28;19924;-78
2021/12/03 01:20:34;;;;;;;;;;;;;;;0.32;90.11;95481.56;5103428;28;20011;-77
2021/12/03 01:23:00;;;;;;;;;;;;;;;0.38;90.57;95480.81;5120453;28;19947;-78
2021/12/03 01:25:26;;;;;;;;;;;;;;;0.36;91.05;95499.09;5101387;28;19976;-78
2021/12/03 01:27:54;;;;;;;;;;;;;;;0.37;90.14;95497.31;5119811;28;19930;-77
2021/12/03 01:30:22;;;;;;;;;;;;;;;0.37;89.16;95494.72;5099516;28;20009;-79
2021/12/03 01:32:48;;;;;;;;;;;;;;;0.29;88.89;95497.47;5095272;28;19955;-75
2021/12/03 01:35:16;;;;;;;;;;;;;;;0.19;88.89;95492.63;5118907;28;19912;-75
2021/12/03 01:37:42;;;;;;;;;;;;;;;0.23;88.77;95502.41;5119275;28;19924;-75
2021/12/03 01:40:09;;;;;;;;;;;;;;;0.13;88.84;95501.94;5109779;28;19959;-77
2021/12/03 01:42:34;;;;;;;;;;;;;;;0.05;88.25;95502.06;5100840;28;19924;-77
2021/12/03 01:45:02;;;;;;;;;;;;;;;0.01;88.55;95511.19;5100523;28;20080;-78
2021/12/03 01:47:29;;;;;;;;;;;;;;;0.08;88.80;95509.44;5099662;28;19924;-78
2021/12/03 01:49:54;;;;;;;;;;;;;;;0.04;88.12;95510.00;5097371;28;19932;-76
2021/12/03 01:52:20;;;;;;;;;;;;;;;0.01;88.98;95515.56;5098916;28;19958;-79
2021/12/03 01:54:45;;;;;;;;;;;;;;;-0.01;88.35;95510.56;5110481;28;20026;-76
2021/12/03 01:57:10;;;;;;;;;;;;;;;0.00;88.10;95514.78;5115505;28;19955;-77
2021/12/03 01:59:36;;;;;;;;;;;;;;;-0.09;89.01;95521.06;5106554;28;20118;-77
2021/12/03 02:02:01;;;;;;;;;;;;;;;-0.03;88.30;95525.47;5106577;28;19939;-79
2021/12/03 02:04:28;;;;;;;;;;;;;;;-0.03;88.86;95521.09;5103386;28;20401;-79
2021/12/03 02:06:56;;;;;;;;;;;;;;;-0.05;88.51;95524.88;5103027;28;20387;-79
2021/12/03 02:09:21;;;;;;;;;;;;;;;-0.13;88.50;95515.44;5105648;28;19963;-79
2021/12/03 02:11:47;;;;;;;;;;;;;;;-0.15;88.84;95516.63;5105038;28;19931;-81
2021/12/03 02:14:12;;;;;;;;;;;;;;;-0.08;89.00;95525.22;5104897;28;19936;-79
2021/12/03 02:16:44;;;;;;;;;;;;;;;0.10;88.93;95530.75;5105175;28;20465;-79
2021/12/03 02:19:09;;;;;;;;;;;;;;;0.16;88.94;95529.19;5107399;28;20035;-80
2021/12/03 02:21:36;;;;;;;;;;;;;;;0.22;88.50;95537.03;5089646;28;19924;-80
2021/12/03 02:24:01;;;;;;;;;;;;;;;0.26;87.52;95529.66;5104300;28;20330;-80
2021/12/03 02:26:29;;;;;;;;;;;;;;;0.29;88.07;95531.91;5086796;28;20071;-79
2021/12/03 02:28:54;;;;;;;;;;;;;;;0.38;87.56;95535.16;5103952;28;19928;-79
2021/12/03 02:31:21;;;;;;;;;;;;;;;0.32;87.27;95533.28;5105479;28;20007;-77
2021/12/03 02:33:49;;;;;;;;;;;;;;;0.31;87.35;95532.50;5098105;28;19968;-77
2021/12/03 02:36:14;;;;;;;;;;;;;;;0.29;86.72;95534.47;5099352;28;20273;-77
2021/12/03 02:38:41;;;;;;;;;;;;;;;0.31;86.10;95536.88;5083926;28;19928;-78
2021/12/03 02:41:09;;;;;;;;;;;;;;;0.16;85.75;95530.03;5107606;28;19924;-76
2021/12/03 02:43:34;;;;;;;;;;;;;;;0.07;86.00;95536.31;5108177;28;20360;-77
2021/12/03 02:45:59;;;;;;;;;;;;;;;-0.08;86.25;95533.78;5103083;28;20034;-79
2021/12/03 02:48:25;;;;;;;;;;;;;;;-0.13;86.52;95540.50;5084915;28;19924;-79
2021/12/03 02:50:51;;;;;;;;;;;;;;;-0.13;86.84;95541.28;5085433;28;20019;-79
2021/12/03 02:53:17;;;;;;;;;;;;;;;-0.08;86.93;95544.13;5103418;22;19971;-80
2021/12/03 02:55:44;;;;;;;;;;;;;;;0.02;86.73;95549.00;5083706;28;19949;-81
2021/12/03 02:58:09;;;;;;;;;;;;;;;0.11;86.02;95553.06;5102231;28;19996;-81
2021/12/03 03:00:35;;;;;;;;;;;;;;;0.09;85.03;95557.59;5101947;28;19924;-80
2021/12/03 03:03:02;;;;;;;;;;;;;;;0.13;85.63;95558.03;5092847;28;19968;-80
2021/12/03 03:05:27;;;;;;;;;;;;;;;0.12;85.24;95561.59;5062673;28;19931;-81
2021/12/03 03:07:54;;;;;;;;;;;;;;;0.10;85.18;95556.59;5080560;28;19971;-80
2021/12/03 03:10:23;;;;;;;;;;;;;;;0.19;85.57;95555.50;5088488;28;19912;-80
2021/12/03 03:12:51;;;;;;;;;;;;;;;0.40;84.23;95570.19;5086037;28;19924;-79
2021/12/03 03:15:17;;;;;;;;;;;;;;;0.49;83.87;95570.84;5076953;28;19925;-80
2021/12/03 03:17:42;;;;;;;;;;;;;;;0.42;84.75;95572.56;5078190;28;19924;-81
2021/12/03 03:20:09;;;;;;;;;;;;;;;0.29;84.79;95565.53;5078431;28;19947;-81
2021/12/03 03:22:35;;;;;;;;;;;;;;;0.17;85.84;95572.19;5079834;28;19924;-81
2021/12/03 03:25:00;;;;;;;;;;;;;;;0.21;86.06;95578.56;5061483;28;20277;-81
2021/12/03 03:27:26;;;;;;;;;;;;;;;0.19;86.11;95576.19;5078958;28;19924;-80
2021/12/03 03:29:53;;;;;;;;;;;;;;;0.24;86.17;95581.59;5069810;28;19931;-80
2021/12/03 03:32:19;;;;;;;;;;;;;;;0.25;85.86;95579.81;5075197;28;19924;-80
2021/12/03 03:34:45;;;;;;;;;;;;;;;0.22;85.69;95578.41;5077342;28;20081;-80
2021/12/03 03:37:12;;;;;;;;;;;;;;;0.25;86.18;95579.81;5059731;28;20304;-81
2021/12/03 03:39:38;;;;;;;;;;;;;;;0.17;86.40;95585.13;5079399;28;19924;-80
2021/12/03 03:42:04;;;;;;;;;;;;;;;0.14;87.21;95573.34;5070253;28;19930;-80
2021/12/03 03:44:30;;;;;;;;;;;;;;;0.14;87.91;95588.88;5094122;28;19929;-81
2021/12/03 03:46:57;;;;;;;;;;;;;;;0.21;87.97;95583.75;5074960;28;19913;-80
2021/12/03 03:49:23;;;;;;;;;;;;;;;0.07;89.17;95584.63;5092796;28;19925;-79
2021/12/03 03:51:49;;;;;;;;;;;;;;;0.11;88.73;95589.25;5077044;28;19913;-79
2021/12/03 03:54:14;;;;;;;;;;;;;;;0.08;89.02;95589.63;5090352;28;19998;-79
2021/12/03 03:56:42;;;;;;;;;;;;;;;0.12;89.90;95597.81;5086105;28;20019;-79
2021/12/03 03:59:08;;;;;;;;;;;;;;;0.00;90.04;95592.34;5070635;28;19928;-79
2021/12/03 04:01:33;;;;;;;;;;;;;;;-0.05;90.22;95599.84;5090306;28;19928;-80
2021/12/03 04:04:02;;;;;;;;;;;;;;;-0.10;90.16;95602.97;5070742;28;19955;-79
2021/12/03 04:06:30;;;;;;;;;;;;;;;-0.22;90.68;95608.78;5093355;28;19924;-79
2021/12/03 04:08:55;;;;;;;;;;;;;;;-0.16;91.43;95608.88;5092626;28;19924;-81
2021/12/03 04:11:24;;;;;;;;;;;;;;;-0.06;91.65;95609.34;5069034;28;19931;-81
2021/12/03 04:13:49;;;;;;;;;;;;;;;-0.07;91.42;95605.19;5085104;28;19955;-81
2021/12/03 04:16:17;;;;;;;;;;;;;;;-0.07;91.37;95612.94;5074852;28;19912;-80
2021/12/03 04:18:42;;;;;;;;;;;;;;;-0.14;91.05;95611.28;5093861;28;19924;-80
2021/12/03 04:21:09;;;;;;;;;;;;;;;-0.31;91.40;95610.72;5092380;28;19925;-81
2021/12/03 04:23:35;;;;;;;;;;;;;;;-0.23;91.90;95615.75;5092455;28;19925;-80
2021/12/03 04:26:03;;;;;;;;;;;;;;;-0.30;91.98;95613.09;5092383;28;19986;-80
2021/12/03 04:28:30;;;;;;;;;;;;;;;-0.18;90.98;95625.53;5089027;28;20383;-81
2021/12/03 04:30:56;;;;;;;;;;;;;;;-0.19;91.37;95621.38;5081983;28;19924;-80
2021/12/03 04:33:24;;;;;;;;;;;;;;;-0.12;91.51;95625.59;5073914;28;19996;-81
2021/12/03 04:35:49;;;;;;;;;;;;;;;-0.12;91.45;95629.97;5067839;28;19940;-80
2021/12/03 04:38:16;;;;;;;;;;;;;;;-0.15;91.35;95633.75;5051078;28;19924;-80
2021/12/03 04:40:41;;;;;;;;;;;;;;;-0.27;90.92;95633.44;5069602;28;19948;-80
2021/12/03 04:43:07;;;;;;;;;;;;;;;-0.03;90.62;95634.06;5068719;28;19929;-79
2021/12/03 04:45:34;;;;;;;;;;;;;;;-0.14;90.28;95642.31;5064819;28;20226;-79
2021/12/03 04:48:03;;;;;;;;;;;;;;;-0.26;90.46;95639.41;5065963;28;19929;-81
2021/12/03 04:50:31;;;;;;;;;;;;;;;-0.18;89.95;95648.81;5048218;28;19947;-80
2021/12/03 04:52:56;;;;;;;;;;;;;;;-0.10;89.36;95659.06;5062004;28;19933;-81
2021/12/03 04:55:24;;;;;;;;;;;;;;;-0.18;89.51;95661.72;5077951;28;19968;-81
2021/12/03 04:57:50;;;;;;;;;;;;;;;-0.17;89.47;95671.88;5086753;28;19931;-80
2021/12/03 05:00:19;;;;;;;;;;;;;;;-0.11;89.62;95678.09;5091324;28;19913;-78
2021/12/03 05:02:45;;;;;;;;;;;;;;;-0.06;88.90;95675.78;5085747;28;19924;-79
2021/12/03 05:05:13;;;;;;;;;;;;;;;-0.07;89.19;95679.34;5085669;28;20016;-80
2021/12/03 05:10:06;;;;;;;;;;;;;;;-0.05;89.33;95687.75;5069665;28;19951;-83
2021/12/03 05:12:33;;;;;;;;;;;;;;;0.10;85.93;95685.91;5063123;28;19956;-81
2021/12/03 05:14:59;;;;;;;;;;;;;;;0.09;85.58;95692.06;5046626;28;19924;-81
2021/12/03 05:17:24;;;;;;;;;;;;;;;0.10;85.20;95688.47;5066032;28;19925;-79
2021/12/03 05:19:49;;;;;;;;;;;;;;;0.04;84.19;95702.16;5066636;28;19925;-81
2021/12/03 05:22:17;;;;;;;;;;;;;;;0.18;84.64;95698.72;5080956;28;19946;-79
2021/12/03 05:24:46;;;;;;;;;;;;;;;0.18;83.10;95698.72;5088239;28;19928;-80
2021/12/03 05:27:11;;;;;;;;;;;;;;;0.12;83.71;95702.06;5070405;28;19925;-79
2021/12/03 05:29:38;;;;;;;;;;;;;;;0.22;83.88;95704.34;5093377;28;19931;-79
2021/12/03 05:32:05;;;;;;;;;;;;;;;0.19;83.18;95708.09;5095704;28;19928;-80
2021/12/03 05:34:30;;;;;;;;;;;;;;;0.12;82.70;95703.84;5075470;28;19990;-78
2021/12/03 05:36:56;;;;;;;;;;;;;;;0.13;81.36;95706.22;5089057;28;20027;-78
2021/12/03 05:39:21;;;;;;;;;;;;;;;0.10;80.57;95710.97;5092150;28;19925;-79
2021/12/03 05:41:46;;;;;;;;;;;;;;;0.18;81.56;95714.25;5061572;28;19925;-80
2021/12/03 05:44:13;;;;;;;;;;;;;;;0.32;79.28;95724.72;5070463;28;19924;-80
2021/12/03 05:46:42;;;;;;;;;;;;;;;0.12;80.58;95727.13;5070412;28;19932;-79
2021/12/03 05:49:10;;;;;;;;;;;;;;;0.16;80.11;95726.56;5071160;28;20008;-80
2021/12/03 05:51:36;;;;;;;;;;;;;;;0.08;79.75;95729.25;5048501;28;19964;-82
2021/12/03 05:54:01;;;;;;;;;;;;;;;0.03;80.44;95715.28;5044377;28;19933;-79
2021/12/03 05:56:26;;;;;;;;;;;;;;;-0.04;80.73;95730.72;5046578;28;19948;-79
2021/12/03 05:58:52;;;;;;;;;;;;;;;-0.07;80.07;95736.22;5080423;28;20023;-79
2021/12/03 06:01:17;;;;;;;;;;;;;;;-0.13;80.13;95721.44;5088779;28;20384;-79
2021/12/03 06:03:46;;;;;;;;;;;;;;;-0.16;80.12;95732.13;5075891;28;19924;-78
2021/12/03 06:06:11;;;;;;;;;;;;;;;-0.21;80.52;95742.25;5095135;28;19967;-79
2021/12/03 06:08:37;;;;;;;;;;;;;;;-0.24;80.82;95737.41;5096889;28;20256;-80
2021/12/03 06:11:02;;;;;;;;;;;;;;;-0.27;81.50;95743.72;5092019;28;19959;-80
2021/12/03 06:13:30;;;;;;;;;;;;;;;-0.21;80.95;95744.81;5091108;28;19924;-78
2021/12/03 06:15:55;;;;;;;;;;;;;;;-0.28;80.63;95748.09;5087877;28;19928;-79
2021/12/03 06:18:21;;;;;;;;;;;;;;;-0.39;81.29;95748.56;5073295;28;19969;-80
2021/12/03 06:20:47;;;;;;;;;;;;;;;-0.34;81.70;95748.81;5091099;28;19931;-79
2021/12/03 06:23:15;;;;;;;;;;;;;;;-0.47;83.01;95746.06;5075747;28;19932;-80
2021/12/03 06:25:41;;;;;;;;;;;;;;;-0.55;82.88;95759.06;5090497;28;19947;-80
2021/12/03 06:28:07;;;;;;;;;;;;;;;-0.53;83.23;95767.47;5089768;28;19924;-79
2021/12/03 06:30:35;;;;;;;;;;;;;;;-0.56;83.60;95770.38;5085979;28;19974;-78
2021/12/03 06:33:00;;;;;;;;;;;;;;;-0.59;84.45;95773.34;5088443;28;19924;-78
2021/12/03 06:35:25;;;;;;;;;;;;;;;-0.68;84.46;95776.97;5087507;28;19935;-79
2021/12/03 06:37:52;;;;;;;;;;;;;;;-0.75;85.20;95778.63;5069745;28;19925;-78
2021/12/03 06:40:19;;;;;;;;;;;;;;;-0.64;85.35;95775.66;5076980;28;20112;-79
2021/12/03 06:42:44;;;;;;;;;;;;;;;-0.68;85.25;95789.88;5069256;28;19929;-81
2021/12/03 06:45:11;;;;;;;;;;;;;;;-0.69;85.50;95786.50;5071966;28;19925;-80
2021/12/03 06:47:39;;;;;;;;;;;;;;;-0.60;84.73;95788.00;5069946;28;19986;-81
2021/12/03 06:50:07;;;;;;;;;;;;;;;-0.64;84.38;95796.31;5073454;28;19935;-80
2021/12/03 06:52:33;;;;;;;;;;;;;;;-0.73;84.69;95797.34;5070398;28;19924;-81
2021/12/03 06:55:03;;;;;;;;;;;;;;;-0.67;84.64;95789.69;5073472;28;19925;-81
2021/12/03 06:57:29;;;;;;;;;;;;;;;-0.64;84.65;95804.06;5078960;28;19925;-81
2021/12/03 06:59:54;;;;;;;;;;;;;;;-0.74;84.70;95808.66;5087833;28;19996;-81
2021/12/03 07:02:19;;;;;;;;;;;;;;;-0.72;85.40;95814.44;5078014;28;20011;-82
2021/12/03 07:04:46;;;;;;;;;;;;;;;-0.73;85.29;95812.84;5090752;28;19935;-81
2021/12/03 07:07:11;;;;;;;;;;;;;;;-0.81;85.14;95814.53;5074153;28;19924;-80
2021/12/03 07:09:37;;;;;;;;;;;;;;;-0.69;84.00;95827.81;5053301;28;20019;-80
2021/12/03 07:12:07;;;;;;;;;;;;;;;-0.62;83.74;95840.84;5070047;28;20419;-81
2021/12/03 07:14:32;;;;;;;;;;;;;;;-0.54;82.53;95838.16;5072863;28;19956;-81
2021/12/03 07:16:59;;;;;;;;;;;;;;;-0.51;82.30;95827.50;5048582;28;19925;-80
2021/12/03 07:19:24;;;;;;;;;;;;;;;-0.44;82.62;95836.13;5063683;28;20066;-77
2021/12/03 07:21:50;;;;;;;;;;;;;;;-0.36;81.93;95840.44;5058974;28;19948;-77
2021/12/03 07:24:15;;;;;;;;;;;;;;;-0.28;81.36;95842.94;5067941;28;19928;-75
2021/12/03 07:26:43;;;;;;;;;;;;;;;-0.17;80.99;95849.44;5070818;28;19925;-79
2021/12/03 07:29:09;;;;;;;;;;;;;;;-0.13;79.28;95855.88;5059039;28;19924;-78
2021/12/03 07:31:35;;;;;;;;;;;;;;;-0.02;80.16;95852.84;5060389;28;19963;-78
2021/12/03 07:34:01;;;;;;;;;;;;;;;0.04;79.50;95856.50;5062856;28;19932;-82
2021/12/03 07:36:28;;;;;;;;;;;;;;;0.13;79.56;95855.44;5060168;28;19925;-81
2021/12/03 07:38:54;;;;;;;;;;;;;;;0.35;78.35;95861.47;5072392;28;20472;-81
2021/12/03 07:41:19;;;;;;;;;;;;;;;0.32;77.60;95856.66;5080074;28;19935;-82
2021/12/03 07:43:44;;;;;;;;;;;;;;;0.35;77.95;95864.06;5069856;28;19925;-81
2021/12/03 07:46:11;;;;;;;;;;;;;;;0.23;77.64;95855.97;5063589;28;19924;-79
2021/12/03 07:48:46;;;;;;;;;;;;;;;0.33;77.56;95859.09;5065069;28;19924;-81
2021/12/03 07:51:11;;;;;;;;;;;;;;;0.39;77.59;95857.56;5058030;28;20395;-76
2021/12/03 07:53:37;;;;;;;;;;;;;;;0.41;77.01;95858.16;5034315;28;19928;-77
2021/12/03 07:56:03;;;;;;;;;;;;;;;0.39;76.35;95860.16;5035072;28;19929;-79
2021/12/03 07:58:29;;;;;;;;;;;;;;;0.45;77.40;95857.63;5035638;28;19971;-78
2021/12/03 08:00:57;;;;;;;;;;;;;;;0.47;76.99;95867.78;5056195;28;19925;-81
2021/12/03 08:03:24;;;;;;;;;;;;;;;0.36;76.22;95860.50;5048236;28;19955;-82
2021/12/03 08:05:50;;;;;;;;;;;;;;;0.43;76.48;95861.38;5069288;28;19963;-81
2021/12/03 08:08:21;;;;;;;;;;;;;;;0.35;76.51;95859.69;5089426;28;19936;-81
2021/12/03 08:10:47;;;;;;;;;;;;;;;0.28;77.36;95860.59;5087713;28;20303;-81
2021/12/03 08:13:12;;;;;;;;;;;;;;;0.24;77.09;95867.91;5085951;28;19988;-81
2021/12/03 08:15:38;;;;;;;;;;;;;;;0.14;76.62;95863.00;5083753;28;19977;-82
2021/12/03 08:18:04;;;;;;;;;;;;;;;0.20;76.77;95867.47;5084277;28;20004;-80
2021/12/03 08:20:31;;;;;;;;;;;;;;;0.32;77.42;95885.13;5083073;28;20378;-80
2021/12/03 08:22:58;;;;;;;;;;;;;;;0.22;76.11;95885.41;5082175;28;19924;-80
2021/12/03 08:25:24;;;;;;;;;;;;;;;0.21;75.94;95884.56;5076309;28;19925;-77
2021/12/03 08:27:49;;;;;;;;;;;;;;;0.25;75.72;95885.03;5074235;28;19924;-78
2021/12/03 08:30:17;;;;;;;;;;;;;;;0.14;75.00;95883.69;5071991;28;20073;-79
2021/12/03 08:32:43;;;;;;;;;;;;;;;0.27;75.67;95867.56;5070559;28;19925;-79
2021/12/03 08:35:08;;;;;;;;;;;;;;;0.23;74.62;95887.81;5058365;28;19931;-78
2021/12/03 08:37:43;;;;;;;;;;;;;;;0.28;73.79;95878.72;5055371;28;20126;-78
2021/12/03 08:40:09;;;;;;;;;;;;;;;0.37;74.54;95888.75;5059469;28;19924;-80
2021/12/03 08:42:35;;;;;;;;;;;;;;;0.40;73.25;95888.41;5058466;28;19928;-79
2021/12/03 08:45:03;;;;;;;;;;;;;;;0.39;73.15;95878.25;5056364;28;19939;-78
2021/12/03 08:47:29;;;;;;;;;;;;;;;0.46;73.43;95886.91;5059017;28;19936;-79
2021/12/03 08:49:57;;;;;;;;;;;;;;;0.39;71.97;95875.66;5063117;28;19936;-78
2021/12/03 08:52:34;;;;;;;;;;;;;;;0.50;72.69;95862.28;5048316;28;19925;-80
2021/12/03 08:55:01;;;;;;;;;;;;;;;0.52;71.56;95879.22;5056067;28;19931;-77
2021/12/03 08:57:30;;;;;;;;;;;;;;;0.59;69.88;95876.69;5035713;28;19996;-75
2021/12/03 08:59:56;;;;;;;;;;;;;;;0.63;70.18;95875.34;5052751;28;20408;-78
2021/12/03 09:02:22;;;;;;;;;;;;;;;0.64;68.23;95871.78;5053614;28;19925;-75
2021/12/03 09:04:48;;;;;;;;;;;;;;;0.60;67.19;95873.13;5056262;28;19924;-76
2021/12/03 09:07:14;;;;;;;;;;;;;;;0.50;66.22;95878.59;5069065;28;20461;-77
2021/12/03 09:09:40;;;;;;;;;;;;;;;0.68;68.15;95870.44;5079842;28;19932;-75
2021/12/03 09:12:07;;;;;;;;;;;;;;;0.73;67.18;95878.47;5075246;28;19981;-76
2021/12/03 09:14:42;;;;;;;;;;;;;;;0.83;67.89;95877.38;5075378;28;19956;-75
2021/12/03 09:22:54;;;;;;;;;;;;;;;0.77;64.95;95881.50;5058123;28;20042;-77
2021/12/03 09:25:31;;;;;;;;;;;;;;;0.90;65.32;95884.22;5050918;28;19920;-76
2021/12/03 09:27:59;;;;;;;;;;;;;;;0.96;64.15;95887.84;5049476;28;20019;-77
2021/12/03 09:30:34;;;;;;;;;;;;;;;1.05;63.54;95895.34;5064701;28;20380;-76
2021/12/03 09:33:03;;;;;;;;;;;;;;;1.11;63.61;95896.38;5061353;28;20019;-74
2021/12/03 09:35:30;;;;;;;;;;;;;;;1.04;63.19;95890.34;5057751;28;19925;-77
2021/12/03 09:37:56;;;;;;;;;;;;;;;1.31;62.68;95886.22;5073180;28;19958;-75
2021/12/03 09:40:24;;;;;;;;;;;;;;;1.30;62.83;95890.59;5071200;28;19984;-76
2021/12/03 09:42:52;;;;;;;;;;;;;;;1.26;64.48;95884.19;5068390;28;19932;-77
2021/12/03 09:45:19;;;;;;;;;;;;;;;1.23;68.61;95884.53;5073530;28;20308;-77
2021/12/03 09:47:45;;;;;;;;;;;;;;;1.19;71.46;95885.13;5077069;28;19931;-78
2021/12/03 09:50:16;;;;;;;;;;;;;;;1.14;71.57;95883.06;5066438;28;19960;-78
2021/12/03 09:55:16;;;;;;;;;;;;;;;1.03;73.41;95884.38;5058808;28;19924;-78
2021/12/03 10:05:41;;;;;;;;;;;;;;;1.34;73.08;95869.47;5078674;28;19985;-78
2021/12/03 10:11:27;;;;;;;;;;;;;;;1.27;72.48;95862.47;5091112;28;19963;-77
2021/12/03 10:14:03;;;;;;;;;;;;;;;1.40;73.33;95863.56;5092452;28;19925;-79
2021/12/03 10:18:51;;;;;;;;;;;;;;;1.40;71.80;95863.56;5076637;28;19925;-79
2021/12/03 10:21:45;;;;;;;;;;;;;;;1.40;72.49;95868.72;5050482;28;19974;-79
2021/12/03 10:37:51;;;;;;;;;;;;;;;1.34;72.07;95853.94;5079739;28;20273;-78
2021/12/03 10:40:27;;;;;;;;;;;;;;;1.29;72.59;95855.31;5062860;28;19931;-79
2021/12/03 10:43:09;;;;;;;;;;;;;;;1.47;72.61;95854.06;5062562;28;20187;-77
2021/12/03 10:45:58;;;;;;;;;;;;;;;1.54;74.39;95844.53;5057439;28;19947;-77
2021/12/03 10:48:34;;;;;;;;;;;;;;;1.35;72.50;95835.63;5073007;28;19924;-80
2021/12/03 10:51:19;;;;;;;;;;;;;;;1.31;72.79;95842.97;5059528;28;19935;-79
2021/12/03 10:53:52;;;;;;;;;;;;;;;1.36;73.07;95850.19;5084415;28;20176;-80
2021/12/03 10:56:39;;;;;;;;;;;;;;;1.44;72.98;95844.84;5086306;28;19947;-79
2021/12/03 11:07:41;;;;;;;;;;;;;;;1.67;72.35;95849.00;5066229;28;20023;-77
2021/12/03 11:13:18;;;;;;;;;;;;;;;1.87;71.63;95838.78;5084585;28;20371;-79
2021/12/03 11:58:44;;;;;;;;;;;;;;;2.57;67.41;95814.34;5076704;28;20066;-77
2021/12/03 12:26:59;;;;;;;;;;;;;;;2.41;67.66;95789.53;5059140;28;20016;-79
2021/12/03 12:43:35;;;;;;;;;;;;;;;1.97;69.35;95762.22;5062511;28;20006;-79
2021/12/03 12:58:11;;;;;;;;;;;;;;;2.16;69.11;95750.34;5086004;28;20037;-78
2021/12/03 13:10:42;;;;;;;;;;;;;;;2.10;69.33;95745.94;5079539;28;19951;-76
2021/12/03 13:57:08;;;;;;;;;;;;;;;1.70;70.94;95721.59;5086762;28;19931;-79
2021/12/03 14:02:45;;;;;;;;;;;;;;;1.69;71.29;95717.41;5078676;28;19951;-78
2021/12/03 14:22:12;;;;;;;;;;;;;;;1.41;74.10;95725.25;5063203;28;19959;-77
2021/12/03 14:42:27;;;;;;;;;;;;;;;1.39;74.74;95727.19;5092941;28;19924;-79
2021/12/03 14:45:16;;;;;;;;;;;;;;;1.33;75.34;95730.56;5075097;28;19924;-77
2021/12/03 14:53:09;;;;;;;;;;;;;;;1.45;75.43;95710.88;5073564;28;20016;-79
2021/12/03 14:55:36;;;;;;;;;;;;;;;1.39;75.97;95724.59;5069281;28;19925;-78
2021/12/03 14:58:02;;;;;;;;;;;;;;;1.34;75.96;95719.19;5079749;28;19935;-78
2021/12/03 15:27:17;;;;;;;;;;;;;;;1.14;78.21;95698.34;5058949;28;19925;-77
2021/12/03 16:04:44;;;;;;;;;;;;;;;0.42;81.40;95709.69;5061128;28;19940;-79
2021/12/03 16:10:03;;;;;;;;;;;;;;;0.25;82.23;95684.06;5075860;28;19925;-78
2021/12/03 16:18:36;;;;;;;;;;;;;;;0.18;82.45;95693.56;5069858;28;19936;-81
2021/12/03 16:52:58;;;;;;;;;;;;;;;0.18;83.36;95670.28;5075904;28;19955;-80
2021/12/03 16:55:24;;;;;;;;;;;;;;;0.23;83.46;95664.56;5073061;28;19936;-80
2021/12/03 16:57:51;;;;;;;;;;;;;;;0.18;83.76;95665.09;5058860;28;20557;-79
2021/12/03 17:02:53;;;;;;;;;;;;;;;0.20;83.99;95645.03;5066003;28;19924;-82
2021/12/03 17:29:37;;;;;;;;;;;;;;;0.26;84.51;95654.63;5053020;28;19925;-80
2021/12/03 17:56:10;;;;;;;;;;;;;;;0.21;84.82;95628.50;5070298;28;19929;-79
2021/12/03 17:58:42;;;;;;;;;;;;;;;0.34;84.57;95634.81;5073963;28;19932;-79
2021/12/03 18:09:03;;;;;;;;;;;;;;;0.41;85.07;95610.59;5068831;28;19929;-80
2021/12/03 18:45:12;;;;;;;;;;;;;;;-0.01;86.16;95564.84;5070302;28;20034;-79
2021/12/03 18:52:48;;;;;;;;;;;;;;;-0.18;86.41;95550.59;5071881;28;19931;-81
2021/12/03 18:55:29;;;;;;;;;;;;;;;-0.08;86.11;95553.66;5070440;28;19928;-81
2021/12/03 18:57:59;;;;;;;;;;;;;;;-0.18;85.95;95527.31;5066773;28;19993;-81
2021/12/03 19:00:27;;;;;;;;;;;;;;;-0.10;85.65;95542.72;5067130;28;19925;-79
2021/12/03 19:02:55;;;;;;;;;;;;;;;-0.22;86.17;95547.56;5066957;28;19932;-79
2021/12/03 19:10:32;;;;;;;;;;;;;;;-0.24;86.06;95546.16;5067648;28;20015;-79
2021/12/03 19:13:05;;;;;;;;;;;;;;;-0.09;85.98;95550.28;5067785;28;19974;-80
2021/12/03 19:15:32;;;;;;;;;;;;;;;-0.27;85.63;95537.81;5067656;28;19932;-80
2021/12/03 19:18:02;;;;;;;;;;;;;;;-0.36;85.74;95535.53;5068601;28;19955;-79
2021/12/03 19:20:29;;;;;;;;;;;;;;;-0.37;86.18;95532.13;5065942;28;19937;-81
2021/12/03 19:22:59;;;;;;;;;;;;;;;-0.36;85.92;95528.56;5065878;28;19990;-80
2021/12/03 19:25:25;;;;;;;;;;;;;;;-0.43;85.72;95514.78;5062025;28;19944;-81
2021/12/03 19:27:54;;;;;;;;;;;;;;;-0.44;85.87;95505.41;5059237;28;19952;-80
2021/12/03 19:30:19;;;;;;;;;;;;;;;-0.39;85.84;95515.19;5059219;28;19944;-79
2021/12/03 19:32:45;;;;;;;;;;;;;;;-0.42;85.80;95506.06;5057688;28;19925;-80
2021/12/03 19:35:10;;;;;;;;;;;;;;;-0.47;85.49;95500.63;5057565;28;19925;-79
2021/12/03 19:37:38;;;;;;;;;;;;;;;-0.39;85.52;95495.31;5058007;28;19963;-79
2021/12/03 19:40:07;;;;;;;;;;;;;;;-0.42;85.23;95507.84;5060183;28;20291;-79
2021/12/03 19:42:37;;;;;;;;;;;;;;;-0.39;84.86;95494.53;5061769;28;20046;-79
2021/12/03 19:45:07;;;;;;;;;;;;;;;-0.50;85.72;95488.06;5062241;28;19935;-81
2021/12/03 19:52:57;;;;;;;;;;;;;;;-0.29;84.56;95474.34;5059798;28;19924;-81
2021/12/03 19:55:22;;;;;;;;;;;;;;;-0.31;83.85;95466.78;5058939;28;19925;-79
2021/12/03 19:57:49;;;;;;;;;;;;;;;-0.33;84.05;95458.41;5058459;28;19936;-81
2021/12/03 20:00:16;;;;;;;;;;;;;;;-0.40;84.63;95457.56;5059912;28;19973;-80
2021/12/03 20:02:41;;;;;;;;;;;;;;;-0.41;84.49;95443.06;5063957;28;19924;-80
2021/12/03 20:05:07;;;;;;;;;;;;;;;-0.48;84.73;95442.19;5057978;28;20332;-79
2021/12/03 20:07:33;;;;;;;;;;;;;;;-0.55;85.54;95441.31;5058799;28;19952;-80
2021/12/03 20:10:01;;;;;;;;;;;;;;;-0.57;85.24;95425.22;5071288;28;20050;-78
2021/12/03 20:12:28;;;;;;;;;;;;;;;-0.55;84.53;95434.38;5072504;28;19956;-80
2021/12/03 20:14:53;;;;;;;;;;;;;;;-0.53;84.96;95436.78;5072421;28;20294;-79
2021/12/03 20:17:35;;;;;;;;;;;;;;;-0.56;84.29;95442.31;5059269;28;19925;-80
2021/12/03 20:20:03;;;;;;;;;;;;;;;-0.57;84.66;95440.72;5059540;28;19925;-82
2021/12/03 20:22:48;;;;;;;;;;;;;;;-0.63;85.33;95446.63;5062029;28;20258;-79
2021/12/03 20:30:24;;;;;;;;;;;;;;;-0.57;85.15;95409.72;5069182;28;20004;-80
2021/12/03 20:38:17;;;;;;;;;;;;;;;-0.35;83.54;95400.97;5059106;28;19937;-79